Time;durP1;ratioP1;P1;durP2;ratioP2;P2;SDS_P1;SDS_P2;PMS_P1;PMS_P2;Temp;Humidity;BMP_temperature;BMP_pressure;BME280_temperature;BME280_humidity;BME280_pressure;Samples;Min_cycle;Max_cycle;Signal;HPM_P1;HPM_P2
2021/12/25 00:02:19;;;;;;;33.38;19.45;;;;;;;4.47;100.00;100353.69;5075730;28;20467;-68
2021/12/25 00:04:45;;;;;;;33.88;20.27;;;;;;;4.44;100.00;100355.34;5075170;28;20025;-68
2021/12/25 00:07:10;;;;;;;31.40;18.80;;;;;;;4.42;100.00;100342.22;5075066;28;20029;-68
2021/12/25 00:09:35;;;;;;;31.08;17.48;;;;;;;4.39;100.00;100349.13;5075730;28;20021;-68
2021/12/25 00:12:01;;;;;;;33.08;19.40;;;;;;;4.38;100.00;100355.22;5075199;28;20103;-68
2021/12/25 00:14:26;;;;;;;30.80;17.95;;;;;;;4.34;100.00;100349.03;5074714;28;20094;-68
2021/12/25 00:16:53;;;;;;;31.20;17.90;;;;;;;4.32;100.00;100345.50;5075221;28;20070;-68
2021/12/25 00:19:18;;;;;;;30.75;18.05;;;;;;;4.29;100.00;100356.78;5075243;28;20032;-67
2021/12/25 00:21:44;;;;;;;31.73;18.10;;;;;;;4.29;100.00;100356.78;5074950;28;20032;-68
2021/12/25 00:24:09;;;;;;;32.30;18.77;;;;;;;4.28;100.00;100357.63;5075042;28;20035;-67
2021/12/25 00:27:03;;;;;;;32.00;19.00;;;;;;;4.30;100.00;100345.47;5074766;28;20359;-67
2021/12/25 00:32:15;;;;;;;33.13;18.48;;;;;;;4.27;100.00;100331.44;5075133;28;20531;-67
2021/12/25 00:34:41;;;;;;;31.08;17.95;;;;;;;4.28;100.00;100335.81;5074743;28;20123;-68
2021/12/25 00:37:08;;;;;;;32.08;18.75;;;;;;;4.26;100.00;100333.16;5074863;28;20112;-66
2021/12/25 00:39:34;;;;;;;32.00;17.98;;;;;;;4.27;100.00;100336.69;5074447;28;20024;-67
2021/12/25 00:42:01;;;;;;;31.90;19.25;;;;;;;4.24;100.00;100347.03;5074831;28;20160;-66
2021/12/25 00:44:28;;;;;;;31.88;19.00;;;;;;;4.24;100.00;100347.03;5074843;28;20028;-67
2021/12/25 00:46:53;;;;;;;32.83;18.83;;;;;;;4.26;100.00;100361.94;5074658;28;20036;-67
2021/12/25 00:49:19;;;;;;;31.48;18.45;;;;;;;4.27;100.00;100352.38;5074433;28;20029;-66
2021/12/25 00:51:44;;;;;;;33.65;19.58;;;;;;;4.25;100.00;100348.81;5074603;28;20078;-67
2021/12/25 00:54:10;;;;;;;33.22;19.25;;;;;;;4.26;100.00;100353.22;5074142;28;20082;-66
2021/12/25 00:56:36;;;;;;;33.45;19.42;;;;;;;4.23;100.00;100353.16;5074270;28;20033;-67
2021/12/25 00:59:01;;;;;;;32.97;19.55;;;;;;;4.23;100.00;100346.19;5074716;28;20034;-66
2021/12/25 01:01:27;;;;;;;33.40;19.80;;;;;;;4.23;100.00;100350.53;5074042;28;20467;-66
2021/12/25 01:03:52;;;;;;;33.78;18.98;;;;;;;4.23;100.00;100350.53;5074672;28;20040;-67
2021/12/25 01:06:17;;;;;;;33.20;20.13;;;;;;;4.17;100.00;100346.03;5073263;28;20021;-66
2021/12/25 01:08:44;;;;;;;33.92;20.38;;;;;;;4.17;100.00;100348.66;5073959;28;20062;-67
2021/12/25 01:11:09;;;;;;;35.72;20.77;;;;;;;4.16;100.00;100345.13;5074141;28;20028;-67
2021/12/25 01:13:40;;;;;;;34.70;20.10;;;;;;;4.16;100.00;100355.59;5074181;28;20023;-67
2021/12/25 01:29:31;;;;;;;37.63;22.75;;;;;;;4.12;100.00;100338.09;5051483;28;20388;-68
2021/12/25 01:37:18;;;;;;;38.17;23.58;;;;;;;4.12;100.00;100338.09;5051372;28;20065;-68
2021/12/25 01:48:00;;;;;;;38.95;25.33;;;;;;;4.04;100.00;100325.69;4988282;28;20053;-68
2021/12/25 01:50:28;;;;;;;41.00;26.45;;;;;;;4.04;100.00;100344.88;4991990;28;20034;-68
2021/12/25 01:52:55;;;;;;;41.60;26.30;;;;;;;4.04;100.00;100342.25;4991636;28;20042;-68
2021/12/25 01:55:28;;;;;;;42.58;27.23;;;;;;;4.06;100.00;100337.94;4991651;28;20037;-68
2021/12/25 01:57:55;;;;;;;42.58;27.58;;;;;;;4.05;100.00;100330.06;5007311;28;20073;-68
2021/12/25 02:00:24;;;;;;;42.22;26.83;;;;;;;4.05;100.00;100338.81;5011281;28;20136;-68
2021/12/25 02:02:50;;;;;;;43.17;27.38;;;;;;;4.02;100.00;100336.13;5011223;28;20030;-68
2021/12/25 02:05:16;;;;;;;42.15;26.52;;;;;;;4.00;100.00;100337.81;5011353;28;20064;-68
2021/12/25 02:07:42;;;;;;;41.45;26.75;;;;;;;3.99;100.00;100336.94;5010847;28;20069;-68
2021/12/25 02:10:08;;;;;;;43.70;28.23;;;;;;;3.99;100.00;100342.16;5011142;28;20109;-68
2021/12/25 02:12:34;;;;;;;45.30;29.63;;;;;;;3.96;100.00;100338.56;5011295;28;20041;-68
2021/12/25 02:15:07;;;;;;;45.30;29.40;;;;;;;3.93;100.00;100339.41;5010856;28;20120;-69
2021/12/25 02:17:51;;;;;;;46.78;29.58;;;;;;;3.94;100.00;100329.81;5007241;28;20025;-67
2021/12/25 02:20:28;;;;;;;45.47;29.35;;;;;;;3.94;100.00;100338.53;5057449;28;20047;-68
2021/12/25 02:23:00;;;;;;;48.30;30.67;;;;;;;3.91;100.00;100335.00;5072971;28;20059;-68
2021/12/25 02:25:27;;;;;;;49.00;30.60;;;;;;;3.88;100.00;100332.31;5073119;28;20017;-69
2021/12/25 02:27:52;;;;;;;48.00;31.05;;;;;;;3.88;100.00;100329.69;5072632;28;20028;-68
2021/12/25 02:30:18;;;;;;;47.47;30.08;;;;;;;3.88;100.00;100327.06;5072626;28;20044;-68
2021/12/25 02:32:44;;;;;;;47.28;29.98;;;;;;;3.87;100.00;100331.41;5072771;28;20031;-68
2021/12/25 02:35:11;;;;;;;43.58;27.70;;;;;;;3.91;100.00;100333.25;5072496;28;20056;-68
2021/12/25 02:37:36;;;;;;;42.53;27.10;;;;;;;3.88;100.00;100319.22;5072719;28;20031;-67
2021/12/25 02:40:02;;;;;;;43.20;27.63;;;;;;;3.88;100.00;100321.84;5072850;28;20021;-67
2021/12/25 02:42:28;;;;;;;42.45;26.90;;;;;;;3.87;100.00;100335.75;5072419;28;20075;-70
2021/12/25 02:44:53;;;;;;;40.22;24.90;;;;;;;3.82;100.00;100331.31;5072536;28;20052;-68
2021/12/25 02:47:20;;;;;;;40.50;25.48;;;;;;;3.77;100.00;100348.63;5072517;28;20164;-70
2021/12/25 02:49:49;;;;;;;39.47;24.58;;;;;;;3.73;100.00;100338.94;5072296;28;20436;-69
2021/12/25 02:52:15;;;;;;;38.83;24.35;;;;;;;3.68;100.00;100337.94;5072537;28;20032;-68
2021/12/25 02:54:41;;;;;;;40.65;26.17;;;;;;;3.62;100.00;100336.03;5072455;28;20545;-69
2021/12/25 02:57:06;;;;;;;39.97;24.13;;;;;;;3.55;100.00;100341.97;5072476;28;20116;-68
2021/12/25 02:59:32;;;;;;;39.75;24.77;;;;;;;3.53;100.00;100327.13;5072356;28;20021;-67
2021/12/25 03:02:13;;;;;;;39.47;24.40;;;;;;;3.47;100.00;100343.53;5072503;28;20021;-69
2021/12/25 03:04:41;;;;;;;38.45;23.73;;;;;;;3.43;100.00;100342.53;5072830;28;20012;-69
2021/12/25 03:07:07;;;;;;;35.92;20.85;;;;;;;3.38;100.00;100338.03;5072414;28;20036;-67
2021/12/25 03:09:33;;;;;;;37.25;22.80;;;;;;;3.34;100.00;100342.31;5072243;28;20024;-68
2021/12/25 03:11:59;;;;;;;36.47;22.13;;;;;;;3.23;100.00;100355.13;5072427;28;20501;-66
2021/12/25 03:14:34;;;;;;;36.78;22.17;;;;;;;3.15;100.00;100348.78;5071890;28;20106;-66
2021/12/25 03:17:00;;;;;;;37.90;22.92;;;;;;;3.09;100.00;100349.50;5072078;28;20041;-67
2021/12/25 03:19:31;;;;;;;39.85;23.55;;;;;;;3.07;100.00;100361.66;5072113;28;20370;-66
2021/12/25 03:21:57;;;;;;;39.85;23.30;;;;;;;3.01;100.00;100371.03;5072238;28;20025;-67
2021/12/25 03:24:24;;;;;;;40.58;23.77;;;;;;;2.96;100.00;100363.97;5072414;28;20021;-67
2021/12/25 03:26:52;;;;;;;39.83;23.85;;;;;;;2.95;100.00;100366.53;5072211;28;20020;-67
2021/12/25 03:29:17;;;;;;;40.65;22.88;;;;;;;2.86;100.00;100368.91;5072025;28;20028;-67
2021/12/25 03:31:45;;;;;;;41.83;23.88;;;;;;;2.84;100.00;100373.16;5075588;28;20017;-66
2021/12/25 03:34:10;;;;;;;40.47;22.88;;;;;;;2.81;100.00;100362.66;5076222;28;20032;-66
2021/12/25 03:36:35;;;;;;;39.58;21.80;;;;;;;2.79;100.00;100368.69;5075909;28;20131;-66
2021/12/25 03:39:01;;;;;;;39.45;22.13;;;;;;;2.74;100.00;100377.28;5075756;28;20542;-67
2021/12/25 03:41:27;;;;;;;41.17;23.17;;;;;;;2.70;100.00;100373.66;5076093;28;20024;-66
2021/12/25 03:43:52;;;;;;;39.55;22.65;;;;;;;2.68;100.00;100380.59;5075601;28;20094;-66
2021/12/25 03:46:18;;;;;;;39.28;21.60;;;;;;;2.63;100.00;100376.94;5075529;28;20372;-66
2021/12/25 03:59:10;;;;;;;35.60;21.63;;;;;;;2.47;100.00;100391.25;5075543;28;20051;-67
2021/12/25 04:06:45;;;;;;;37.10;21.80;;;;;;;2.37;100.00;100389.22;5072121;28;20036;-66
2021/12/25 04:09:21;;;;;;;39.55;21.95;;;;;;;2.38;100.00;100391.88;5075197;28;20107;-67
2021/12/25 04:11:46;;;;;;;36.80;22.20;;;;;;;2.28;100.00;100392.44;5075495;28;20025;-66
2021/12/25 04:14:12;;;;;;;37.30;22.95;;;;;;;2.19;100.00;100403.47;5074847;28;20097;-68
2021/12/25 04:16:37;;;;;;;39.72;24.02;;;;;;;2.14;100.00;100399.84;5075131;28;20391;-70
2021/12/25 04:19:03;;;;;;;37.88;22.60;;;;;;;2.15;100.00;100409.41;5075438;28;20031;-68
2021/12/25 04:21:28;;;;;;;37.42;23.02;;;;;;;2.14;100.00;100407.66;5074929;28;20546;-68
2021/12/25 04:23:54;;;;;;;37.13;22.88;;;;;;;2.09;100.00;100409.22;5074976;28;20021;-68
2021/12/25 04:26:22;;;;;;;39.42;24.48;;;;;;;2.04;100.00;100411.69;5074964;28;20024;-68
2021/12/25 04:29:01;;;;;;;39.83;25.08;;;;;;;1.99;100.00;100418.47;5074994;28;20032;-68
2021/12/25 05:03:58;;;;;;;41.33;26.40;;;;;;;1.27;100.00;100453.41;5074645;28;20084;-69
2021/12/25 05:06:24;;;;;;;39.38;25.40;;;;;;;1.19;100.00;100458.34;5074068;28;20028;-68
2021/12/25 05:08:51;;;;;;;40.30;26.38;;;;;;;1.09;100.00;100457.94;5073876;28;20140;-68
2021/12/25 05:11:16;;;;;;;41.35;27.50;;;;;;;1.07;100.00;100459.63;5074132;28;20024;-69
2021/12/25 05:13:43;;;;;;;40.97;27.15;;;;;;;1.02;100.00;100465.53;5073699;28;20036;-69
2021/12/25 05:16:09;;;;;;;42.53;27.92;;;;;;;0.98;100.00;100461.03;5074027;28;20111;-68
2021/12/25 05:18:34;;;;;;;40.65;26.35;;;;;;;1.00;100.00;100466.28;5074001;28;20117;-69
2021/12/25 05:21:00;;;;;;;41.70;26.85;;;;;;;0.93;100.00;100464.28;5073683;28;20020;-68
2021/12/25 05:23:25;;;;;;;41.90;28.05;;;;;;;0.95;100.00;100467.84;5073995;28;20111;-67
2021/12/25 05:25:51;;;;;;;42.40;28.13;;;;;;;0.90;100.00;100467.66;5073813;28;20497;-67
2021/12/25 05:28:24;;;;;;;42.33;27.77;;;;;;;0.89;100.00;100475.41;5073665;28;20024;-69
2021/12/25 05:30:49;;;;;;;40.25;25.42;;;;;;;0.87;100.00;100472.75;5073489;28;20128;-68
2021/12/25 05:33:15;;;;;;;42.08;27.20;;;;;;;0.85;100.00;100474.44;5074129;28;20032;-67
2021/12/25 05:35:40;;;;;;;41.90;27.23;;;;;;;0.79;100.00;100479.41;5073317;28;20126;-67
2021/12/25 05:38:12;;;;;;;40.10;26.50;;;;;;;0.75;100.00;100483.59;5072116;28;20040;-67
2021/12/25 05:40:38;;;;;;;;;;;;;;;0.93;100.00;100483.38;5104834;28;20029;-68
2021/12/25 05:43:03;;;;;;;39.58;25.35;;;;;;;0.70;100.00;100487.75;5073455;28;19912;-68
2021/12/25 05:45:28;;;;;;;40.72;26.85;;;;;;;0.67;100.00;100491.13;5073329;28;20020;-69
2021/12/25 05:47:54;;;;;;;40.60;26.65;;;;;;;0.61;100.00;100483.06;5073844;28;20119;-68
2021/12/25 05:50:19;;;;;;;40.53;25.63;;;;;;;0.61;100.00;100487.38;5073061;28;20484;-67
2021/12/25 05:52:44;;;;;;;41.15;26.42;;;;;;;0.56;100.00;100491.53;5072979;28;20035;-68
2021/12/25 05:55:10;;;;;;;40.85;25.85;;;;;;;0.52;100.00;100490.50;5073320;28;20032;-69
2021/12/25 05:57:35;;;;;;;41.63;26.80;;;;;;;0.54;100.00;100486.28;5073112;28;20025;-68
2021/12/25 06:00:00;;;;;;;41.28;27.25;;;;;;;0.50;100.00;100492.16;5073031;28;20103;-68
2021/12/25 06:02:26;;;;;;;42.05;26.25;;;;;;;0.49;100.00;100500.78;5073138;28;20103;-68
2021/12/25 06:04:51;;;;;;;42.45;26.90;;;;;;;0.49;100.00;100501.66;5072985;28;20056;-68
2021/12/25 06:07:16;;;;;;;42.20;26.15;;;;;;;0.45;100.00;100511.91;5073017;28;20104;-68
2021/12/25 06:09:42;;;;;;;42.05;25.95;;;;;;;0.50;100.00;100511.25;5072858;28;20103;-68
2021/12/25 06:12:10;;;;;;;40.63;25.98;;;;;;;0.43;100.00;100514.44;5073002;28;20100;-68
2021/12/25 06:14:36;;;;;;;40.88;25.98;;;;;;;0.43;100.00;100513.56;5072986;28;20479;-68
2021/12/25 06:17:01;;;;;;;40.50;25.35;;;;;;;0.33;100.00;100513.16;5068752;28;20035;-69
2021/12/25 06:19:26;;;;;;;38.80;24.83;;;;;;;0.34;100.00;100506.28;5072683;28;20020;-68
2021/12/25 06:21:52;;;;;;;39.85;24.67;;;;;;;0.32;100.00;100510.50;5072739;28;20024;-68
2021/12/25 06:24:17;;;;;;;39.45;23.48;;;;;;;0.22;100.00;100514.47;5072743;28;20078;-68
2021/12/25 06:26:43;;;;;;;37.72;23.58;;;;;;;0.19;100.00;100522.16;5072528;28;20078;-68
2021/12/25 06:29:08;;;;;;;37.90;23.10;;;;;;;0.18;100.00;100520.38;5073045;28;20028;-68
2021/12/25 06:31:34;;;;;;;38.40;22.95;;;;;;;0.17;100.00;100524.69;5072747;28;20031;-68
2021/12/25 06:34:00;;;;;;;40.35;24.75;;;;;;;0.19;100.00;100524.75;5072602;28;20460;-68
2021/12/25 06:36:25;;;;;;;37.03;22.40;;;;;;;0.19;100.00;100529.03;5072698;28;20028;-68
2021/12/25 06:38:51;;;;;;;36.63;21.42;;;;;;;0.22;100.00;100532.66;5072492;28;20063;-68
2021/12/25 06:41:16;;;;;;;36.75;22.38;;;;;;;0.16;100.00;100530.69;5072541;28;20021;-69
2021/12/25 06:43:42;;;;;;;38.10;22.55;;;;;;;0.14;100.00;100526.25;5072979;28;20032;-67
2021/12/25 06:46:08;;;;;;;37.22;22.73;;;;;;;0.11;100.00;100524.41;5072482;28;20024;-68
2021/12/25 06:48:33;;;;;;;38.03;23.25;;;;;;;0.05;100.00;100533.69;5072430;28;20027;-67
2021/12/25 06:50:59;;;;;;;36.72;21.55;;;;;;;0.11;100.00;100528.72;5072525;28;20028;-67
2021/12/25 06:53:24;;;;;;;37.63;22.90;;;;;;;0.06;100.00;100532.84;5072244;28;20048;-67
2021/12/25 06:55:49;;;;;;;37.78;22.35;;;;;;;0.06;100.00;100533.75;5072607;28;20051;-69
2021/12/25 06:58:15;;;;;;;37.90;23.50;;;;;;;-0.05;100.00;100538.47;5072501;28;20387;-69
2021/12/25 07:00:41;;;;;;;38.55;22.30;;;;;;;-0.05;100.00;100542.78;5072338;28;20032;-67
2021/12/25 07:03:06;;;;;;;38.05;22.35;;;;;;;-0.03;100.00;100541.13;5072471;28;20025;-68
2021/12/25 07:05:31;;;;;;;38.97;22.20;;;;;;;-0.05;100.00;100548.88;5074246;28;20031;-67
2021/12/25 07:07:57;;;;;;;37.25;22.60;;;;;;;-0.04;100.00;100552.38;5076171;28;20021;-68
2021/12/25 07:10:23;;;;;;;39.10;23.23;;;;;;;-0.05;100.00;100561.88;5076497;28;20025;-69
2021/12/25 07:12:51;;;;;;;38.53;22.75;;;;;;;-0.05;100.00;100558.38;5076425;28;20095;-67
2021/12/25 07:15:17;;;;;;;39.50;24.05;;;;;;;-0.06;100.00;100557.50;5075956;28;20042;-68
2021/12/25 07:17:43;;;;;;;38.65;22.60;;;;;;;-0.04;100.00;100561.06;5076588;28;20394;-69
2021/12/25 07:20:09;;;;;;;38.35;22.58;;;;;;;-0.01;100.00;100549.91;5076107;28;20028;-67
2021/12/25 07:22:35;;;;;;;38.22;22.95;;;;;;;-0.03;100.00;100556.72;5076023;28;20108;-67
2021/12/25 07:25:02;;;;;;;38.70;23.02;;;;;;;-0.10;100.00;100565.09;5076138;28;20103;-67
2021/12/25 07:27:27;;;;;;;37.38;22.48;;;;;;;-0.13;100.00;100571.06;5075806;28;20036;-66
2021/12/25 07:29:52;;;;;;;36.55;21.88;;;;;;;-0.14;100.00;100573.59;5075958;28;20028;-66
2021/12/25 07:32:18;;;;;;;35.60;20.85;;;;;;;-0.18;100.00;100572.56;5076084;28;20027;-66
2021/12/25 07:34:47;;;;;;;36.03;20.98;;;;;;;-0.24;100.00;100577.50;5075825;28;20040;-67
2021/12/25 07:37:15;;;;;;;35.78;21.27;;;;;;;-0.27;100.00;100579.97;5075615;28;20102;-67
2021/12/25 07:39:41;;;;;;;37.95;22.85;;;;;;;-0.28;100.00;100583.38;5075881;28;20032;-66
2021/12/25 07:42:07;;;;;;;37.17;21.42;;;;;;;-0.18;100.00;100585.56;5075837;28;20025;-67
2021/12/25 07:44:33;;;;;;;36.80;21.25;;;;;;;-0.23;100.00;100579.28;5072422;28;20043;-69
2021/12/25 07:46:59;;;;;;;35.78;21.23;;;;;;;-0.23;100.00;100589.69;5073267;28;20459;-67
2021/12/25 07:49:26;;;;;;;33.85;20.40;;;;;;;-0.31;100.00;100589.31;5073083;28;20035;-67
2021/12/25 07:51:51;;;;;;;34.47;19.73;;;;;;;-0.28;100.00;100591.16;5070591;28;20036;-66
2021/12/25 07:54:16;;;;;;;33.70;19.92;;;;;;;-0.31;100.00;100585.84;5073395;28;20488;-68
2021/12/25 07:56:42;;;;;;;31.50;18.55;;;;;;;-0.24;100.00;100588.75;5073093;28;20090;-68
2021/12/25 07:59:07;;;;;;;31.27;17.48;;;;;;;-0.33;100.00;100595.28;5073343;28;20024;-69
2021/12/25 08:01:35;;;;;;;32.13;19.17;;;;;;;-0.39;100.00;100603.69;5072444;28;20478;-70
2021/12/25 08:04:02;;;;;;;32.03;19.05;;;;;;;-0.36;100.00;100598.63;5072903;28;20437;-71
2021/12/25 08:06:28;;;;;;;32.53;19.55;;;;;;;-0.42;100.00;100599.25;5072571;28;20505;-70
2021/12/25 08:08:56;;;;;;;32.10;19.10;;;;;;;-0.42;100.00;100600.97;5073032;28;20036;-71
2021/12/25 08:11:22;;;;;;;32.35;19.10;;;;;;;-0.43;100.00;100605.25;5072596;28;20418;-71
2021/12/25 08:13:47;;;;;;;32.08;18.90;;;;;;;-0.42;100.00;100619.16;5072848;28;20031;-71
2021/12/25 08:16:12;;;;;;;30.77;17.95;;;;;;;-0.47;100.00;100621.50;5071234;28;20147;-70
2021/12/25 08:18:38;;;;;;;30.77;17.50;;;;;;;-0.45;100.00;100621.56;5071290;28;20086;-71
2021/12/25 08:21:04;;;;;;;30.17;16.98;;;;;;;-0.41;100.00;100618.31;5071276;28;20033;-72
2021/12/25 08:23:33;;;;;;;29.52;16.50;;;;;;;-0.51;100.00;100619.63;5071548;28;20032;-67
2021/12/25 08:26:00;;;;;;;29.48;17.27;;;;;;;-0.53;100.00;100627.31;5071372;28;20032;-70
2021/12/25 08:28:26;;;;;;;31.63;18.85;;;;;;;-0.56;100.00;100623.69;5071399;28;20028;-69
2021/12/25 08:30:51;;;;;;;29.50;16.67;;;;;;;-0.55;100.00;100634.16;5070878;28;20025;-69
2021/12/25 08:33:17;;;;;;;29.83;17.55;;;;;;;-0.57;100.00;100632.28;5071355;28;20028;-70
2021/12/25 08:35:42;;;;;;;31.52;16.95;;;;;;;-0.57;100.00;100632.28;5071559;28;20512;-70
2021/12/25 08:38:11;;;;;;;29.73;16.00;;;;;;;-0.57;100.00;100640.09;5071220;28;20150;-69
2021/12/25 08:40:37;;;;;;;29.92;17.10;;;;;;;-0.55;100.00;100638.47;5070092;28;20032;-67
2021/12/25 08:43:04;;;;;;;30.75;17.05;;;;;;;-0.59;100.00;100650.41;5070578;28;20074;-67
2021/12/25 08:48:09;;;;;;;30.25;17.05;;;;;;;-0.56;100.00;100655.75;5070979;28;20032;-66
2021/12/25 08:50:35;;;;;;;30.60;16.67;;;;;;;-0.55;100.00;100661.84;5070988;28;20024;-69
2021/12/25 08:53:00;;;;;;;27.50;16.50;;;;;;;-0.58;100.00;100666.91;5069829;28;20454;-70
2021/12/25 08:55:26;;;;;;;28.00;15.68;;;;;;;-0.58;100.00;100654.78;5070374;28;20111;-70
2021/12/25 08:57:53;;;;;;;27.77;15.50;;;;;;;-0.56;100.00;100654.88;5069209;28;20023;-69
2021/12/25 09:00:19;;;;;;;29.15;15.20;;;;;;;-0.63;100.00;100665.78;5070912;28;20043;-69
2021/12/25 09:02:46;;;;;;;29.13;16.20;;;;;;;-0.53;100.00;100668.88;5070829;28;20039;-69
2021/12/25 09:05:11;;;;;;;28.42;16.20;;;;;;;-0.60;100.00;100664.19;5070695;28;20029;-69
2021/12/25 09:07:37;;;;;;;28.58;16.30;;;;;;;-0.56;100.00;100670.44;5070484;28;20036;-69
2021/12/25 09:10:03;;;;;;;28.20;15.68;;;;;;;-0.60;100.00;100665.91;5069848;28;20450;-69
2021/12/25 09:12:28;;;;;;;29.08;15.98;;;;;;;-0.60;100.00;100672.00;5069155;28;20020;-67
2021/12/25 09:14:54;;;;;;;27.52;15.43;;;;;;;-0.55;100.00;100669.63;5029513;28;1180161;-68
2021/12/25 09:17:19;;;;;;;27.42;15.73;;;;;;;-0.65;100.00;100673.50;5071548;28;20032;-68
2021/12/25 09:19:45;;;;;;;28.85;16.45;;;;;;;-0.65;100.00;100683.88;5072073;28;20153;-66
2021/12/25 09:22:11;;;;;;;29.45;16.52;;;;;;;-0.61;100.00;100675.44;5071076;28;20103;-67
2021/12/25 09:24:38;;;;;;;27.52;16.00;;;;;;;-0.64;100.00;100677.88;5070672;28;20513;-67
2021/12/25 09:27:04;;;;;;;27.70;15.02;;;;;;;-0.65;100.00;100672.63;5072079;28;20407;-67
2021/12/25 09:29:30;;;;;;;28.70;16.15;;;;;;;-0.63;100.00;100673.56;5072863;28;20017;-67
2021/12/25 09:31:55;;;;;;;27.77;15.10;;;;;;;-0.66;100.00;100678.63;5073364;28;20033;-66
2021/12/25 09:34:21;;;;;;;27.60;15.02;;;;;;;-0.66;100.00;100665.63;5073322;28;20107;-67
2021/12/25 09:36:46;;;;;;;27.52;15.20;;;;;;;-0.68;100.00;100670.75;5073447;28;20055;-69
2021/12/25 09:39:12;;;;;;;27.60;14.82;;;;;;;-0.67;100.00;100669.03;5072917;28;20103;-68
2021/12/25 09:41:37;;;;;;;27.90;16.23;;;;;;;-0.73;100.00;100672.25;5073250;28;20464;-68
2021/12/25 09:44:04;;;;;;;30.23;15.20;;;;;;;-0.69;100.00;100681.09;5073370;28;20021;-67
2021/12/25 09:46:29;;;;;;;27.58;16.33;;;;;;;-0.65;100.00;100683.00;5073219;28;20470;-66
2021/12/25 09:48:55;;;;;;;28.20;14.98;;;;;;;-0.67;100.00;100684.63;5073712;28;20066;-66
2021/12/25 09:51:21;;;;;;;27.52;14.82;;;;;;;-0.68;100.00;100690.63;5073260;28;20017;-68
2021/12/25 09:53:57;;;;;;;27.80;14.93;;;;;;;-0.67;100.00;100684.63;5073439;28;20025;-69
2021/12/25 09:56:23;;;;;;;26.02;14.65;;;;;;;-0.69;100.00;100694.06;5073283;28;20016;-69
2021/12/25 09:58:49;;;;;;;27.40;15.75;;;;;;;-0.73;100.00;100700.78;5073003;28;20386;-69
2021/12/25 10:01:33;;;;;;;27.45;15.48;;;;;;;-0.66;100.00;100697.69;5073048;28;20036;-68
2021/12/25 10:04:00;;;;;;;27.77;15.05;;;;;;;-0.67;100.00;100698.53;5069635;28;20021;-68
2021/12/25 10:06:34;;;;;;;27.58;15.20;;;;;;;-0.67;100.00;100711.50;5073048;28;20077;-67
2021/12/25 10:09:21;;;;;;;28.15;15.68;;;;;;;-0.62;100.00;100719.50;5069661;28;20036;-67
2021/12/25 10:12:05;;;;;;;26.95;14.90;;;;;;;-0.65;100.00;100704.66;5073370;28;20020;-68
2021/12/25 10:14:31;;;;;;;27.23;14.98;;;;;;;-0.72;100.00;100729.44;5069758;28;20051;-66
2021/12/25 10:16:56;;;;;;;26.98;15.32;;;;;;;-0.72;100.00;100721.63;5072516;28;20045;-66
2021/12/25 10:19:23;;;;;;;27.40;15.90;;;;;;;-0.64;100.00;100727.22;5072874;28;20402;-67
2021/12/25 10:22:10;;;;;;;26.60;15.00;;;;;;;-0.53;100.00;100714.72;5072922;28;20031;-69
2021/12/25 10:24:50;;;;;;;27.63;15.93;;;;;;;-0.60;100.00;100716.13;5070304;28;20028;-68
2021/12/25 10:27:22;;;;;;;27.02;14.10;;;;;;;-0.58;100.00;100727.50;5072638;28;20131;-67
2021/12/25 10:29:57;;;;;;;26.70;14.77;;;;;;;-0.60;100.00;100723.03;5073140;28;20070;-67
2021/12/25 10:32:24;;;;;;;25.50;13.57;;;;;;;-0.63;100.00;100720.31;5072881;28;20052;-67
2021/12/25 10:34:52;;;;;;;26.83;14.20;;;;;;;-0.65;100.00;100720.25;5072787;28;20029;-67
2021/12/25 10:37:19;;;;;;;25.48;13.90;;;;;;;-0.75;100.00;100718.03;5072479;28;20495;-67
2021/12/25 10:39:46;;;;;;;27.27;15.10;;;;;;;-0.81;100.00;100713.41;5072453;28;20103;-69
2021/12/25 10:42:17;;;;;;;25.25;13.40;;;;;;;-0.85;100.00;100716.69;5072561;28;20509;-67
2021/12/25 10:44:47;;;;;;;26.08;13.40;;;;;;;-0.86;100.00;100717.47;5072609;28;20078;-67
2021/12/25 10:47:16;;;;;;;25.92;13.63;;;;;;;-0.88;100.00;100729.50;5072387;28;20527;-66
2021/12/25 10:50:12;;;;;;;25.05;13.38;;;;;;;-0.93;100.00;100720.63;5072378;28;20181;-67
2021/12/25 10:52:43;;;;;;;25.38;13.18;;;;;;;-0.99;100.00;100723.81;5069839;28;20491;-67
2021/12/25 10:55:24;;;;;;;24.52;12.45;;;;;;;-0.96;100.00;100723.03;5072399;28;20017;-67
2021/12/25 10:57:57;;;;;;;25.17;12.18;;;;;;;-1.00;100.00;100716.84;5071181;28;20097;-67
2021/12/25 11:00:34;;;;;;;24.02;11.98;;;;;;;-1.00;100.00;100708.16;5072369;28;20017;-67
2021/12/25 11:03:03;;;;;;;23.45;12.68;;;;;;;-1.05;100.00;100718.28;5068403;28;20020;-67
2021/12/25 11:05:32;;;;;;;24.52;12.38;;;;;;;-1.03;100.00;100715.78;5068059;28;20025;-67
2021/12/25 11:08:08;;;;;;;22.80;11.32;;;;;;;-0.99;100.00;100707.31;5068180;28;20032;-66
2021/12/25 11:11:02;;;;;;;25.02;12.07;;;;;;;-0.97;100.00;100708.31;5069431;28;20036;-67
2021/12/25 11:13:29;;;;;;;23.63;11.52;;;;;;;-1.01;100.00;100709.84;5068559;28;20068;-67
2021/12/25 11:16:31;;;;;;;24.98;12.15;;;;;;;-0.99;100.00;100712.53;5072251;28;20044;-67
2021/12/25 11:19:11;;;;;;;23.27;10.75;;;;;;;-0.99;100.00;100715.13;5068519;28;20025;-68
2021/12/25 11:21:46;;;;;;;22.88;10.48;;;;;;;-1.06;100.00;100722.59;5069764;28;20024;-68
2021/12/25 11:24:36;;;;;;;22.83;10.00;;;;;;;-1.09;100.00;100727.66;5072193;28;20063;-68
2021/12/25 11:27:04;;;;;;;22.75;10.20;;;;;;;-1.07;100.00;100736.38;5069030;28;20028;-68
2021/12/25 11:29:32;;;;;;;22.40;10.25;;;;;;;-1.06;100.00;100732.97;5072006;28;20064;-68
2021/12/25 11:31:59;;;;;;;22.38;10.07;;;;;;;-1.07;100.00;100725.13;5068486;28;20100;-68
2021/12/25 11:34:27;;;;;;;21.48;9.00;;;;;;;-1.02;100.00;100715.88;5071990;28;20079;-68
2021/12/25 11:36:54;;;;;;;21.92;9.25;;;;;;;-1.02;100.00;100708.09;5071698;28;20025;-68
2021/12/25 11:39:22;;;;;;;21.50;9.23;;;;;;;-0.94;100.00;100698.06;5071955;28;20094;-68
2021/12/25 11:41:50;;;;;;;21.27;8.90;;;;;;;-0.80;100.00;100694.44;5072175;28;20020;-68
2021/12/25 11:44:51;;;;;;;20.85;8.63;;;;;;;-0.53;100.00;100696.56;5071796;28;20066;-67
2021/12/25 11:47:51;;;;;;;20.70;8.90;;;;;;;-0.06;100.00;100697.84;5070482;28;20031;-68
2021/12/25 11:50:24;;;;;;;20.52;8.48;;;;;;;0.52;100.00;100699.53;5044333;28;20033;-69
2021/12/25 11:53:04;;;;;;;21.10;8.57;;;;;;;1.24;100.00;100698.09;5053598;28;20033;-69
2021/12/25 11:58:39;;;;;;;19.30;6.38;;;;;;;2.60;95.64;100703.09;5050903;28;20391;-68
2021/12/25 12:01:26;;;;;;;19.02;6.45;;;;;;;2.01;97.53;100692.31;5050610;28;20068;-68
2021/12/25 12:03:54;;;;;;;18.42;6.07;;;;;;;1.49;95.80;100689.53;5053354;28;20025;-69
2021/12/25 12:06:40;;;;;;;17.98;5.97;;;;;;;1.31;99.25;100696.63;5053287;28;20466;-69
2021/12/25 12:09:09;;;;;;;19.67;6.53;;;;;;;1.15;99.93;100697.72;5053228;28;20119;-69
2021/12/25 12:11:37;;;;;;;17.20;5.68;;;;;;;0.96;100.00;100702.22;5053155;28;20021;-69
2021/12/25 12:14:26;;;;;;;17.73;5.70;;;;;;;0.84;100.00;100696.47;5052912;28;20400;-69
2021/12/25 12:16:57;;;;;;;17.90;5.63;;;;;;;0.65;100.00;100695.69;5052713;28;20057;-70
2021/12/25 12:19:31;;;;;;;17.60;5.43;;;;;;;0.52;100.00;100701.22;5052947;28;20509;-70
2021/12/25 12:21:58;;;;;;;17.45;5.32;;;;;;;0.33;100.00;100703.00;5049134;28;20025;-70
2021/12/25 12:27:03;;;;;;;17.92;5.20;;;;;;;0.25;100.00;100691.41;5064365;28;20035;-69
2021/12/25 12:29:49;;;;;;;16.90;5.30;;;;;;;0.37;100.00;100678.03;5071354;28;20029;-68
2021/12/25 12:32:23;;;;;;;17.35;5.40;;;;;;;0.26;100.00;100679.28;5073344;28;20031;-68
2021/12/25 12:34:51;;;;;;;17.95;5.53;;;;;;;0.22;100.00;100672.16;5074960;28;20040;-68
2021/12/25 12:37:16;;;;;;;18.38;5.55;;;;;;;0.31;100.00;100676.06;5074655;28;20032;-69
2021/12/25 12:40:05;;;;;;;17.63;5.57;;;;;;;0.38;100.00;100671.13;5074793;28;20038;-67